sensor_id;sensor_type;location;lat;lon;timestamp;P1;durP1;ratioP1;P2;durP2;ratioP2
17696;SDS011;8967;47.984;7.842;2022-07-29T00:00:40;6.22;;;4.57;;
17696;SDS011;8967;47.984;7.842;2022-07-29T00:03:09;4.57;;;4.03;;
17696;SDS011;8967;47.984;7.842;2022-07-29T00:05:39;5.70;;;4.30;;
17696;SDS011;8967;47.984;7.842;2022-07-29T00:08:07;4.75;;;4.30;;
17696;SDS011;8967;47.984;7.842;2022-07-29T00:10:34;5.32;;;4.30;;
17696;SDS011;8967;47.984;7.842;2022-07-29T00:13:01;4.90;;;3.95;;
17696;SDS011;8967;47.984;7.842;2022-07-29T00:15:28;4.95;;;4.22;;
17696;SDS011;8967;47.984;7.842;2022-07-29T00:17:55;5.32;;;4.10;;
17696;SDS011;8967;47.984;7.842;2022-07-29T00:20:22;5.28;;;4.43;;
17696;SDS011;8967;47.984;7.842;2022-07-29T00:22:50;4.38;;;3.92;;
17696;SDS011;8967;47.984;7.842;2022-07-29T00:25:20;5.20;;;4.38;;
17696;SDS011;8967;47.984;7.842;2022-07-29T00:27:47;4.45;;;4.05;;
17696;SDS011;8967;47.984;7.842;2022-07-29T00:30:14;4.93;;;4.40;;
17696;SDS011;8967;47.984;7.842;2022-07-29T00:32:43;4.20;;;3.80;;
17696;SDS011;8967;47.984;7.842;2022-07-29T00:35:10;5.40;;;3.90;;
17696;SDS011;8967;47.984;7.842;2022-07-29T00:37:56;5.10;;;4.60;;
17696;SDS011;8967;47.984;7.842;2022-07-29T00:40:23;6.38;;;4.35;;
17696;SDS011;8967;47.984;7.842;2022-07-29T00:42:52;7.72;;;4.43;;
17696;SDS011;8967;47.984;7.842;2022-07-29T00:45:21;4.60;;;4.20;;
17696;SDS011;8967;47.984;7.842;2022-07-29T00:47:48;7.60;;;4.50;;
17696;SDS011;8967;47.984;7.842;2022-07-29T00:50:15;7.57;;;4.40;;
17696;SDS011;8967;47.984;7.842;2022-07-29T00:52:42;5.38;;;4.10;;
17696;SDS011;8967;47.984;7.842;2022-07-29T00:55:12;5.90;;;4.22;;
17696;SDS011;8967;47.984;7.842;2022-07-29T00:57:42;4.40;;;4.00;;
17696;SDS011;8967;47.984;7.842;2022-07-29T01:00:10;7.57;;;4.03;;
17696;SDS011;8967;47.984;7.842;2022-07-29T01:02:39;4.55;;;4.13;;
17696;SDS011;8967;47.984;7.842;2022-07-29T01:05:06;4.45;;;4.05;;
17696;SDS011;8967;47.984;7.842;2022-07-29T01:07:34;5.25;;;4.25;;
17696;SDS011;8967;47.984;7.842;2022-07-29T01:10:02;6.63;;;4.22;;
17696;SDS011;8967;47.984;7.842;2022-07-29T01:12:32;4.97;;;3.70;;
17696;SDS011;8967;47.984;7.842;2022-07-29T01:15:00;4.72;;;3.92;;
17696;SDS011;8967;47.984;7.842;2022-07-29T01:17:29;6.18;;;4.43;;
17696;SDS011;8967;47.984;7.842;2022-07-29T01:20:05;6.55;;;3.95;;
17696;SDS011;8967;47.984;7.842;2022-07-29T01:22:41;4.97;;;4.47;;
17696;SDS011;8967;47.984;7.842;2022-07-29T01:25:32;9.75;;;4.20;;
17696;SDS011;8967;47.984;7.842;2022-07-29T01:31:26;6.97;;;4.30;;
17696;SDS011;8967;47.984;7.842;2022-07-29T01:33:58;5.50;;;4.57;;
17696;SDS011;8967;47.984;7.842;2022-07-29T01:36:30;4.80;;;4.18;;
17696;SDS011;8967;47.984;7.842;2022-07-29T01:39:04;7.03;;;4.30;;
17696;SDS011;8967;47.984;7.842;2022-07-29T01:41:34;5.28;;;4.40;;
17696;SDS011;8967;47.984;7.842;2022-07-29T01:44:10;4.90;;;4.38;;
17696;SDS011;8967;47.984;7.842;2022-07-29T01:46:41;4.43;;;4.00;;
17696;SDS011;8967;47.984;7.842;2022-07-29T01:49:16;6.25;;;4.22;;
17696;SDS011;8967;47.984;7.842;2022-07-29T01:51:47;7.63;;;4.45;;
17696;SDS011;8967;47.984;7.842;2022-07-29T01:54:18;5.55;;;4.60;;
17696;SDS011;8967;47.984;7.842;2022-07-29T01:56:49;4.78;;;4.25;;
17696;SDS011;8967;47.984;7.842;2022-07-29T01:59:21;4.72;;;4.32;;
17696;SDS011;8967;47.984;7.842;2022-07-29T02:01:49;5.70;;;4.00;;
17696;SDS011;8967;47.984;7.842;2022-07-29T02:04:20;4.85;;;4.20;;
17696;SDS011;8967;47.984;7.842;2022-07-29T02:06:48;5.72;;;4.70;;
17696;SDS011;8967;47.984;7.842;2022-07-29T02:09:19;5.40;;;4.20;;
17696;SDS011;8967;47.984;7.842;2022-07-29T02:11:50;5.68;;;4.85;;
17696;SDS011;8967;47.984;7.842;2022-07-29T02:14:21;4.43;;;4.03;;
17696;SDS011;8967;47.984;7.842;2022-07-29T02:16:50;4.90;;;4.40;;
17696;SDS011;8967;47.984;7.842;2022-07-29T02:19:21;5.55;;;4.13;;
17696;SDS011;8967;47.984;7.842;2022-07-29T02:21:52;5.05;;;4.03;;
17696;SDS011;8967;47.984;7.842;2022-07-29T02:24:21;7.03;;;4.30;;
17696;SDS011;8967;47.984;7.842;2022-07-29T02:26:51;6.18;;;4.55;;
17696;SDS011;8967;47.984;7.842;2022-07-29T02:29:22;6.43;;;4.55;;
17696;SDS011;8967;47.984;7.842;2022-07-29T02:31:51;4.45;;;4.00;;
17696;SDS011;8967;47.984;7.842;2022-07-29T02:34:20;9.35;;;5.03;;
17696;SDS011;8967;47.984;7.842;2022-07-29T02:36:50;8.70;;;4.70;;
17696;SDS011;8967;47.984;7.842;2022-07-29T02:39:18;5.45;;;4.40;;
17696;SDS011;8967;47.984;7.842;2022-07-29T02:41:48;4.45;;;4.05;;
17696;SDS011;8967;47.984;7.842;2022-07-29T02:44:19;4.55;;;4.15;;
17696;SDS011;8967;47.984;7.842;2022-07-29T02:46:49;4.72;;;3.92;;
17696;SDS011;8967;47.984;7.842;2022-07-29T02:49:27;5.32;;;4.22;;
17696;SDS011;8967;47.984;7.842;2022-07-29T02:52:03;5.57;;;4.65;;
17696;SDS011;8967;47.984;7.842;2022-07-29T02:54:37;5.10;;;4.60;;
17696;SDS011;8967;47.984;7.842;2022-07-29T02:57:09;9.13;;;4.40;;
17696;SDS011;8967;47.984;7.842;2022-07-29T02:59:44;5.22;;;4.72;;
17696;SDS011;8967;47.984;7.842;2022-07-29T03:02:17;6.40;;;4.60;;
17696;SDS011;8967;47.984;7.842;2022-07-29T03:04:46;4.47;;;4.07;;
17696;SDS011;8967;47.984;7.842;2022-07-29T03:07:17;4.40;;;4.00;;
17696;SDS011;8967;47.984;7.842;2022-07-29T03:09:46;4.43;;;4.03;;
17696;SDS011;8967;47.984;7.842;2022-07-29T03:12:13;5.68;;;4.45;;
17696;SDS011;8967;47.984;7.842;2022-07-29T03:14:42;4.72;;;4.00;;
17696;SDS011;8967;47.984;7.842;2022-07-29T03:17:09;5.15;;;4.68;;
17696;SDS011;8967;47.984;7.842;2022-07-29T03:19:38;5.53;;;3.97;;
17696;SDS011;8967;47.984;7.842;2022-07-29T03:22:05;5.72;;;4.07;;
17696;SDS011;8967;47.984;7.842;2022-07-29T03:24:33;6.15;;;4.68;;
17696;SDS011;8967;47.984;7.842;2022-07-29T03:27:02;6.45;;;4.57;;
17696;SDS011;8967;47.984;7.842;2022-07-29T03:29:30;4.93;;;4.47;;
17696;SDS011;8967;47.984;7.842;2022-07-29T03:31:57;5.10;;;4.10;;
17696;SDS011;8967;47.984;7.842;2022-07-29T03:34:24;5.97;;;4.13;;
17696;SDS011;8967;47.984;7.842;2022-07-29T03:36:52;5.50;;;4.35;;
17696;SDS011;8967;47.984;7.842;2022-07-29T03:39:20;6.90;;;4.90;;
17696;SDS011;8967;47.984;7.842;2022-07-29T03:41:49;6.40;;;4.38;;
17696;SDS011;8967;47.984;7.842;2022-07-29T03:44:21;7.57;;;4.15;;
17696;SDS011;8967;47.984;7.842;2022-07-29T03:46:50;4.80;;;4.30;;
17696;SDS011;8967;47.984;7.842;2022-07-29T03:49:20;7.82;;;4.88;;
17696;SDS011;8967;47.984;7.842;2022-07-29T03:51:49;5.15;;;4.22;;
17696;SDS011;8967;47.984;7.842;2022-07-29T03:54:18;8.20;;;4.53;;
17696;SDS011;8967;47.984;7.842;2022-07-29T03:56:45;6.22;;;4.38;;
17696;SDS011;8967;47.984;7.842;2022-07-29T03:59:14;7.63;;;4.40;;
17696;SDS011;8967;47.984;7.842;2022-07-29T04:01:44;5.57;;;5.03;;
17696;SDS011;8967;47.984;7.842;2022-07-29T04:04:12;4.95;;;4.45;;
17696;SDS011;8967;47.984;7.842;2022-07-29T04:06:42;6.80;;;4.35;;
17696;SDS011;8967;47.984;7.842;2022-07-29T04:09:11;5.15;;;4.20;;
17696;SDS011;8967;47.984;7.842;2022-07-29T04:11:42;4.40;;;4.03;;
17696;SDS011;8967;47.984;7.842;2022-07-29T04:14:09;4.93;;;4.32;;
17696;SDS011;8967;47.984;7.842;2022-07-29T04:16:36;4.95;;;4.40;;
17696;SDS011;8967;47.984;7.842;2022-07-29T04:19:03;6.55;;;4.68;;
17696;SDS011;8967;47.984;7.842;2022-07-29T04:21:30;8.93;;;4.60;;
17696;SDS011;8967;47.984;7.842;2022-07-29T04:23:57;5.85;;;4.10;;
17696;SDS011;8967;47.984;7.842;2022-07-29T04:26:25;7.57;;;4.32;;
17696;SDS011;8967;47.984;7.842;2022-07-29T04:28:53;5.65;;;4.25;;
17696;SDS011;8967;47.984;7.842;2022-07-29T04:31:20;7.03;;;4.43;;
17696;SDS011;8967;47.984;7.842;2022-07-29T04:33:47;6.25;;;4.20;;
17696;SDS011;8967;47.984;7.842;2022-07-29T04:36:14;6.55;;;4.70;;
17696;SDS011;8967;47.984;7.842;2022-07-29T04:38:41;7.55;;;4.40;;
17696;SDS011;8967;47.984;7.842;2022-07-29T04:41:08;4.93;;;4.05;;
17696;SDS011;8967;47.984;7.842;2022-07-29T04:43:35;5.53;;;4.13;;
17696;SDS011;8967;47.984;7.842;2022-07-29T04:46:05;7.63;;;5.00;;
17696;SDS011;8967;47.984;7.842;2022-07-29T04:48:33;4.53;;;4.07;;
17696;SDS011;8967;47.984;7.842;2022-07-29T04:50:59;4.53;;;4.10;;
17696;SDS011;8967;47.984;7.842;2022-07-29T04:53:26;6.38;;;4.45;;
17696;SDS011;8967;47.984;7.842;2022-07-29T04:55:53;8.23;;;4.88;;
17696;SDS011;8967;47.984;7.842;2022-07-29T04:58:20;6.18;;;4.53;;
17696;SDS011;8967;47.984;7.842;2022-07-29T05:00:48;6.10;;;4.22;;
17696;SDS011;8967;47.984;7.842;2022-07-29T05:03:17;7.35;;;4.25;;
17696;SDS011;8967;47.984;7.842;2022-07-29T05:05:44;5.95;;;4.50;;
17696;SDS011;8967;47.984;7.842;2022-07-29T05:08:11;6.35;;;4.05;;
17696;SDS011;8967;47.984;7.842;2022-07-29T05:10:38;5.43;;;3.97;;
17696;SDS011;8967;47.984;7.842;2022-07-29T05:13:05;4.95;;;4.28;;
17696;SDS011;8967;47.984;7.842;2022-07-29T05:15:32;7.93;;;4.45;;
17696;SDS011;8967;47.984;7.842;2022-07-29T05:17:59;4.53;;;4.13;;
17696;SDS011;8967;47.984;7.842;2022-07-29T05:20:30;6.65;;;4.80;;
17696;SDS011;8967;47.984;7.842;2022-07-29T05:22:59;4.85;;;4.35;;
17696;SDS011;8967;47.984;7.842;2022-07-29T05:25:28;5.35;;;4.85;;
17696;SDS011;8967;47.984;7.842;2022-07-29T05:27:59;5.13;;;4.10;;
17696;SDS011;8967;47.984;7.842;2022-07-29T05:30:26;4.53;;;4.10;;
17696;SDS011;8967;47.984;7.842;2022-07-29T05:32:55;8.43;;;4.55;;
17696;SDS011;8967;47.984;7.842;2022-07-29T05:35:22;6.45;;;4.85;;
17696;SDS011;8967;47.984;7.842;2022-07-29T05:37:50;5.75;;;4.38;;
17696;SDS011;8967;47.984;7.842;2022-07-29T05:40:17;3.85;;;3.55;;
17696;SDS011;8967;47.984;7.842;2022-07-29T05:42:47;5.00;;;4.50;;
17696;SDS011;8967;47.984;7.842;2022-07-29T05:45:14;5.55;;;4.35;;
17696;SDS011;8967;47.984;7.842;2022-07-29T05:47:41;6.35;;;4.57;;
17696;SDS011;8967;47.984;7.842;2022-07-29T05:50:10;6.78;;;3.63;;
17696;SDS011;8967;47.984;7.842;2022-07-29T05:52:39;5.25;;;4.32;;
17696;SDS011;8967;47.984;7.842;2022-07-29T05:55:10;6.82;;;3.67;;
17696;SDS011;8967;47.984;7.842;2022-07-29T05:57:40;5.63;;;4.30;;
17696;SDS011;8967;47.984;7.842;2022-07-29T06:00:09;7.47;;;3.80;;
17696;SDS011;8967;47.984;7.842;2022-07-29T06:02:39;8.43;;;4.63;;
17696;SDS011;8967;47.984;7.842;2022-07-29T06:05:06;6.43;;;4.38;;
17696;SDS011;8967;47.984;7.842;2022-07-29T06:07:33;6.03;;;4.35;;
17696;SDS011;8967;47.984;7.842;2022-07-29T06:10:00;5.38;;;4.07;;
17696;SDS011;8967;47.984;7.842;2022-07-29T06:12:29;5.30;;;4.38;;
17696;SDS011;8967;47.984;7.842;2022-07-29T06:14:55;4.93;;;4.35;;
17696;SDS011;8967;47.984;7.842;2022-07-29T06:17:22;6.10;;;4.18;;
17696;SDS011;8967;47.984;7.842;2022-07-29T06:19:50;9.88;;;4.82;;
17696;SDS011;8967;47.984;7.842;2022-07-29T06:22:17;9.00;;;4.60;;
17696;SDS011;8967;47.984;7.842;2022-07-29T06:24:44;7.65;;;4.95;;
17696;SDS011;8967;47.984;7.842;2022-07-29T06:27:13;7.93;;;4.95;;
17696;SDS011;8967;47.984;7.842;2022-07-29T06:29:42;7.65;;;5.10;;
17696;SDS011;8967;47.984;7.842;2022-07-29T06:32:09;6.57;;;4.95;;
17696;SDS011;8967;47.984;7.842;2022-07-29T06:34:36;7.38;;;4.20;;
17696;SDS011;8967;47.984;7.842;2022-07-29T06:37:05;10.20;;;4.95;;
17696;SDS011;8967;47.984;7.842;2022-07-29T06:39:33;9.00;;;4.57;;
17696;SDS011;8967;47.984;7.842;2022-07-29T06:42:01;5.50;;;4.32;;
17696;SDS011;8967;47.984;7.842;2022-07-29T06:44:28;4.35;;;3.90;;
17696;SDS011;8967;47.984;7.842;2022-07-29T06:46:57;10.05;;;4.32;;
17696;SDS011;8967;47.984;7.842;2022-07-29T06:49:24;5.40;;;3.88;;
17696;SDS011;8967;47.984;7.842;2022-07-29T06:51:55;4.60;;;4.18;;
17696;SDS011;8967;47.984;7.842;2022-07-29T06:54:22;4.40;;;3.75;;
17696;SDS011;8967;47.984;7.842;2022-07-29T06:56:49;5.45;;;4.07;;
17696;SDS011;8967;47.984;7.842;2022-07-29T06:59:18;6.32;;;4.07;;
17696;SDS011;8967;47.984;7.842;2022-07-29T07:01:45;5.00;;;3.55;;
17696;SDS011;8967;47.984;7.842;2022-07-29T07:04:13;4.60;;;4.10;;
17696;SDS011;8967;47.984;7.842;2022-07-29T07:06:40;4.85;;;3.92;;
17696;SDS011;8967;47.984;7.842;2022-07-29T07:09:07;4.22;;;3.83;;
17696;SDS011;8967;47.984;7.842;2022-07-29T07:11:34;11.77;;;4.65;;
17696;SDS011;8967;47.984;7.842;2022-07-29T07:14:04;6.60;;;3.90;;
17696;SDS011;8967;47.984;7.842;2022-07-29T07:16:31;6.63;;;4.13;;
17696;SDS011;8967;47.984;7.842;2022-07-29T07:18:58;7.80;;;3.80;;
17696;SDS011;8967;47.984;7.842;2022-07-29T07:21:26;4.13;;;3.72;;
17696;SDS011;8967;47.984;7.842;2022-07-29T07:23:53;5.93;;;3.60;;
17696;SDS011;8967;47.984;7.842;2022-07-29T07:26:20;7.68;;;3.67;;
17696;SDS011;8967;47.984;7.842;2022-07-29T07:28:47;6.35;;;4.28;;
17696;SDS011;8967;47.984;7.842;2022-07-29T07:31:13;4.35;;;3.70;;
17696;SDS011;8967;47.984;7.842;2022-07-29T07:33:40;5.65;;;3.92;;
17696;SDS011;8967;47.984;7.842;2022-07-29T07:36:07;5.57;;;3.80;;
17696;SDS011;8967;47.984;7.842;2022-07-29T07:38:38;3.58;;;3.17;;
17696;SDS011;8967;47.984;7.842;2022-07-29T07:41:05;3.67;;;3.38;;
17696;SDS011;8967;47.984;7.842;2022-07-29T07:43:32;4.60;;;3.90;;
17696;SDS011;8967;47.984;7.842;2022-07-29T07:45:59;7.50;;;4.30;;
17696;SDS011;8967;47.984;7.842;2022-07-29T07:48:26;13.27;;;3.63;;
17696;SDS011;8967;47.984;7.842;2022-07-29T07:50:53;7.30;;;4.00;;
17696;SDS011;8967;47.984;7.842;2022-07-29T07:53:21;5.38;;;3.63;;
17696;SDS011;8967;47.984;7.842;2022-07-29T07:55:49;6.10;;;3.67;;
17696;SDS011;8967;47.984;7.842;2022-07-29T07:58:18;4.93;;;3.58;;
17696;SDS011;8967;47.984;7.842;2022-07-29T08:00:45;5.88;;;3.95;;
17696;SDS011;8967;47.984;7.842;2022-07-29T08:03:12;8.80;;;3.88;;
17696;SDS011;8967;47.984;7.842;2022-07-29T08:05:44;4.88;;;3.85;;
17696;SDS011;8967;47.984;7.842;2022-07-29T08:08:12;4.68;;;3.90;;
17696;SDS011;8967;47.984;7.842;2022-07-29T08:10:39;4.13;;;3.72;;
17696;SDS011;8967;47.984;7.842;2022-07-29T08:13:20;6.25;;;3.90;;
17696;SDS011;8967;47.984;7.842;2022-07-29T08:15:48;5.30;;;3.85;;
17696;SDS011;8967;47.984;7.842;2022-07-29T08:18:22;7.75;;;3.70;;
17696;SDS011;8967;47.984;7.842;2022-07-29T08:20:52;6.35;;;3.58;;
17696;SDS011;8967;47.984;7.842;2022-07-29T08:23:19;12.43;;;3.50;;
17696;SDS011;8967;47.984;7.842;2022-07-29T08:25:46;7.32;;;3.60;;
17696;SDS011;8967;47.984;7.842;2022-07-29T08:28:13;7.40;;;3.42;;
17696;SDS011;8967;47.984;7.842;2022-07-29T08:30:41;11.60;;;3.80;;
17696;SDS011;8967;47.984;7.842;2022-07-29T08:33:08;4.07;;;3.65;;
17696;SDS011;8967;47.984;7.842;2022-07-29T08:35:35;5.32;;;3.63;;
17696;SDS011;8967;47.984;7.842;2022-07-29T08:38:02;4.15;;;3.70;;
17696;SDS011;8967;47.984;7.842;2022-07-29T08:40:29;4.22;;;3.55;;
17696;SDS011;8967;47.984;7.842;2022-07-29T08:42:56;8.65;;;3.58;;
17696;SDS011;8967;47.984;7.842;2022-07-29T08:45:23;5.30;;;3.30;;
17696;SDS011;8967;47.984;7.842;2022-07-29T08:47:53;3.40;;;3.08;;
17696;SDS011;8967;47.984;7.842;2022-07-29T08:50:21;7.10;;;3.40;;
17696;SDS011;8967;47.984;7.842;2022-07-29T08:52:48;6.55;;;3.70;;
17696;SDS011;8967;47.984;7.842;2022-07-29T08:55:16;4.85;;;3.20;;
17696;SDS011;8967;47.984;7.842;2022-07-29T08:57:44;6.97;;;3.50;;
17696;SDS011;8967;47.984;7.842;2022-07-29T09:00:12;3.58;;;3.22;;
17696;SDS011;8967;47.984;7.842;2022-07-29T09:02:39;3.85;;;3.25;;
17696;SDS011;8967;47.984;7.842;2022-07-29T09:05:12;3.88;;;3.30;;
17696;SDS011;8967;47.984;7.842;2022-07-29T09:07:39;3.80;;;2.75;;
17696;SDS011;8967;47.984;7.842;2022-07-29T09:10:09;2.92;;;2.58;;
17696;SDS011;8967;47.984;7.842;2022-07-29T09:12:36;6.03;;;3.10;;
17696;SDS011;8967;47.984;7.842;2022-07-29T09:15:03;4.10;;;2.70;;
17696;SDS011;8967;47.984;7.842;2022-07-29T09:17:40;4.72;;;3.17;;
17696;SDS011;8967;47.984;7.842;2022-07-29T09:20:09;6.90;;;3.10;;
17696;SDS011;8967;47.984;7.842;2022-07-29T09:22:38;3.47;;;2.90;;
17696;SDS011;8967;47.984;7.842;2022-07-29T09:25:07;4.35;;;2.60;;
17696;SDS011;8967;47.984;7.842;2022-07-29T09:27:37;3.80;;;2.72;;
17696;SDS011;8967;47.984;7.842;2022-07-29T09:30:07;9.55;;;2.60;;
17696;SDS011;8967;47.984;7.842;2022-07-29T09:35:22;5.07;;;3.58;;
17696;SDS011;8967;47.984;7.842;2022-07-29T09:37:51;3.75;;;2.70;;
17696;SDS011;8967;47.984;7.842;2022-07-29T09:40:20;7.22;;;3.55;;
17696;SDS011;8967;47.984;7.842;2022-07-29T09:42:49;6.13;;;4.25;;
17696;SDS011;8967;47.984;7.842;2022-07-29T09:45:28;4.85;;;2.80;;
17696;SDS011;8967;47.984;7.842;2022-07-29T09:47:56;6.60;;;3.05;;
17696;SDS011;8967;47.984;7.842;2022-07-29T09:50:34;3.78;;;2.78;;
17696;SDS011;8967;47.984;7.842;2022-07-29T09:53:04;3.28;;;2.65;;
17696;SDS011;8967;47.984;7.842;2022-07-29T09:55:31;2.53;;;2.22;;
17696;SDS011;8967;47.984;7.842;2022-07-29T09:58:14;6.55;;;3.08;;
17696;SDS011;8967;47.984;7.842;2022-07-29T10:00:42;4.60;;;2.45;;
17696;SDS011;8967;47.984;7.842;2022-07-29T10:03:11;4.07;;;2.22;;
17696;SDS011;8967;47.984;7.842;2022-07-29T10:05:38;3.33;;;2.30;;
17696;SDS011;8967;47.984;7.842;2022-07-29T10:08:08;3.35;;;2.42;;
17696;SDS011;8967;47.984;7.842;2022-07-29T10:10:37;3.25;;;2.35;;
17696;SDS011;8967;47.984;7.842;2022-07-29T10:13:09;3.35;;;2.42;;
17696;SDS011;8967;47.984;7.842;2022-07-29T10:15:37;3.30;;;2.33;;
17696;SDS011;8967;47.984;7.842;2022-07-29T10:18:08;3.88;;;2.28;;
17696;SDS011;8967;47.984;7.842;2022-07-29T10:20:39;3.97;;;2.70;;
17696;SDS011;8967;47.984;7.842;2022-07-29T10:23:06;7.03;;;2.38;;
17696;SDS011;8967;47.984;7.842;2022-07-29T10:25:35;2.72;;;2.53;;
17696;SDS011;8967;47.984;7.842;2022-07-29T10:28:02;4.20;;;2.70;;
17696;SDS011;8967;47.984;7.842;2022-07-29T10:30:31;4.45;;;2.60;;
17696;SDS011;8967;47.984;7.842;2022-07-29T10:33:07;4.15;;;2.70;;
17696;SDS011;8967;47.984;7.842;2022-07-29T10:35:47;5.72;;;2.60;;
17696;SDS011;8967;47.984;7.842;2022-07-29T10:38:37;6.43;;;3.20;;
17696;SDS011;8967;47.984;7.842;2022-07-29T10:41:18;3.70;;;3.10;;
17696;SDS011;8967;47.984;7.842;2022-07-29T10:44:01;2.85;;;2.65;;
17696;SDS011;8967;47.984;7.842;2022-07-29T10:46:34;5.18;;;2.90;;
17696;SDS011;8967;47.984;7.842;2022-07-29T10:49:05;8.45;;;2.83;;
17696;SDS011;8967;47.984;7.842;2022-07-29T10:54:38;3.85;;;3.20;;
17696;SDS011;8967;47.984;7.842;2022-07-29T10:57:11;4.40;;;3.10;;
17696;SDS011;8967;47.984;7.842;2022-07-29T10:59:45;6.75;;;3.30;;
17696;SDS011;8967;47.984;7.842;2022-07-29T11:05:08;4.38;;;2.72;;
17696;SDS011;8967;47.984;7.842;2022-07-29T11:07:37;8.60;;;3.05;;
17696;SDS011;8967;47.984;7.842;2022-07-29T11:10:22;2.60;;;2.40;;
17696;SDS011;8967;47.984;7.842;2022-07-29T11:12:50;2.95;;;2.63;;
17696;SDS011;8967;47.984;7.842;2022-07-29T11:15:18;2.90;;;2.63;;
17696;SDS011;8967;47.984;7.842;2022-07-29T11:18:03;4.32;;;2.85;;
17696;SDS011;8967;47.984;7.842;2022-07-29T11:20:34;4.10;;;2.70;;
17696;SDS011;8967;47.984;7.842;2022-07-29T11:23:17;6.20;;;2.80;;
17696;SDS011;8967;47.984;7.842;2022-07-29T11:28:59;5.43;;;2.47;;
17696;SDS011;8967;47.984;7.842;2022-07-29T11:31:34;4.45;;;2.80;;
17696;SDS011;8967;47.984;7.842;2022-07-29T11:34:15;5.07;;;2.55;;
17696;SDS011;8967;47.984;7.842;2022-07-29T11:39:45;2.80;;;2.50;;
17696;SDS011;8967;47.984;7.842;2022-07-29T11:45:12;3.63;;;2.88;;
17696;SDS011;8967;47.984;7.842;2022-07-29T11:47:47;3.67;;;2.55;;
17696;SDS011;8967;47.984;7.842;2022-07-29T11:50:18;5.85;;;3.47;;
17696;SDS011;8967;47.984;7.842;2022-07-29T11:52:55;5.43;;;3.67;;
17696;SDS011;8967;47.984;7.842;2022-07-29T11:55:25;4.72;;;3.30;;
17696;SDS011;8967;47.984;7.842;2022-07-29T11:57:54;5.22;;;3.05;;
17696;SDS011;8967;47.984;7.842;2022-07-29T12:00:25;5.10;;;3.03;;
17696;SDS011;8967;47.984;7.842;2022-07-29T12:02:54;2.78;;;2.58;;
17696;SDS011;8967;47.984;7.842;2022-07-29T12:05:30;6.28;;;3.15;;
17696;SDS011;8967;47.984;7.842;2022-07-29T12:08:03;4.45;;;2.92;;
17696;SDS011;8967;47.984;7.842;2022-07-29T12:10:37;4.47;;;2.95;;
17696;SDS011;8967;47.984;7.842;2022-07-29T12:13:06;3.60;;;3.00;;
17696;SDS011;8967;47.984;7.842;2022-07-29T12:15:33;3.80;;;3.08;;
17696;SDS011;8967;47.984;7.842;2022-07-29T12:18:09;4.55;;;3.30;;
17696;SDS011;8967;47.984;7.842;2022-07-29T12:20:40;3.78;;;3.10;;
17696;SDS011;8967;47.984;7.842;2022-07-29T12:23:09;4.32;;;2.83;;
17696;SDS011;8967;47.984;7.842;2022-07-29T12:25:40;4.43;;;2.72;;
17696;SDS011;8967;47.984;7.842;2022-07-29T12:28:10;5.63;;;2.78;;
17696;SDS011;8967;47.984;7.842;2022-07-29T12:30:44;3.78;;;2.83;;
17696;SDS011;8967;47.984;7.842;2022-07-29T12:33:15;4.10;;;3.10;;
17696;SDS011;8967;47.984;7.842;2022-07-29T12:35:49;7.50;;;2.90;;
17696;SDS011;8967;47.984;7.842;2022-07-29T12:38:17;6.38;;;2.80;;
17696;SDS011;8967;47.984;7.842;2022-07-29T12:40:46;4.28;;;2.83;;
17696;SDS011;8967;47.984;7.842;2022-07-29T12:43:16;3.60;;;3.00;;
17696;SDS011;8967;47.984;7.842;2022-07-29T12:45:45;6.50;;;3.10;;
17696;SDS011;8967;47.984;7.842;2022-07-29T12:48:13;3.03;;;2.72;;
17696;SDS011;8967;47.984;7.842;2022-07-29T12:50:53;5.53;;;3.20;;
17696;SDS011;8967;47.984;7.842;2022-07-29T12:53:22;3.10;;;2.70;;
17696;SDS011;8967;47.984;7.842;2022-07-29T12:55:50;5.03;;;3.03;;
17696;SDS011;8967;47.984;7.842;2022-07-29T12:58:29;8.15;;;3.10;;
17696;SDS011;8967;47.984;7.842;2022-07-29T13:01:05;3.72;;;2.47;;
17696;SDS011;8967;47.984;7.842;2022-07-29T13:03:44;3.17;;;2.40;;
17696;SDS011;8967;47.984;7.842;2022-07-29T13:09:12;3.72;;;2.20;;
17696;SDS011;8967;47.984;7.842;2022-07-29T13:11:40;3.47;;;2.53;;
17696;SDS011;8967;47.984;7.842;2022-07-29T13:14:11;5.60;;;2.30;;
17696;SDS011;8967;47.984;7.842;2022-07-29T13:19:32;3.83;;;2.60;;
17696;SDS011;8967;47.984;7.842;2022-07-29T13:22:00;4.30;;;2.20;;
17696;SDS011;8967;47.984;7.842;2022-07-29T13:24:33;2.40;;;2.17;;
17696;SDS011;8967;47.984;7.842;2022-07-29T13:27:13;5.47;;;2.70;;
17696;SDS011;8967;47.984;7.842;2022-07-29T13:29:41;3.58;;;2.28;;
17696;SDS011;8967;47.984;7.842;2022-07-29T13:32:08;3.90;;;2.53;;
17696;SDS011;8967;47.984;7.842;2022-07-29T13:34:35;3.47;;;2.40;;
17696;SDS011;8967;47.984;7.842;2022-07-29T13:37:02;2.40;;;2.20;;
17696;SDS011;8967;47.984;7.842;2022-07-29T13:39:29;2.47;;;2.28;;
17696;SDS011;8967;47.984;7.842;2022-07-29T13:41:59;4.10;;;2.13;;
17696;SDS011;8967;47.984;7.842;2022-07-29T13:44:28;2.75;;;2.17;;
17696;SDS011;8967;47.984;7.842;2022-07-29T13:46:56;3.75;;;2.08;;
17696;SDS011;8967;47.984;7.842;2022-07-29T13:49:24;3.35;;;2.33;;
17696;SDS011;8967;47.984;7.842;2022-07-29T13:51:52;4.28;;;2.28;;
17696;SDS011;8967;47.984;7.842;2022-07-29T13:54:19;3.95;;;2.28;;
17696;SDS011;8967;47.984;7.842;2022-07-29T13:56:46;2.83;;;2.13;;
17696;SDS011;8967;47.984;7.842;2022-07-29T13:59:13;5.50;;;2.50;;
17696;SDS011;8967;47.984;7.842;2022-07-29T14:01:40;3.25;;;2.13;;
17696;SDS011;8967;47.984;7.842;2022-07-29T14:04:09;4.53;;;2.53;;
17696;SDS011;8967;47.984;7.842;2022-07-29T14:06:36;5.97;;;2.17;;
17696;SDS011;8967;47.984;7.842;2022-07-29T14:09:04;3.40;;;2.10;;
17696;SDS011;8967;47.984;7.842;2022-07-29T14:11:33;3.92;;;2.17;;
17696;SDS011;8967;47.984;7.842;2022-07-29T14:14:00;3.72;;;2.22;;
17696;SDS011;8967;47.984;7.842;2022-07-29T14:16:27;5.00;;;2.10;;
17696;SDS011;8967;47.984;7.842;2022-07-29T14:18:54;2.47;;;2.28;;
17696;SDS011;8967;47.984;7.842;2022-07-29T14:21:25;7.38;;;2.40;;
17696;SDS011;8967;47.984;7.842;2022-07-29T14:23:52;2.92;;;2.17;;
17696;SDS011;8967;47.984;7.842;2022-07-29T14:26:19;2.30;;;2.10;;
17696;SDS011;8967;47.984;7.842;2022-07-29T14:28:46;6.97;;;2.20;;
17696;SDS011;8967;47.984;7.842;2022-07-29T14:31:13;2.38;;;2.05;;
17696;SDS011;8967;47.984;7.842;2022-07-29T14:33:41;4.53;;;2.03;;
17696;SDS011;8967;47.984;7.842;2022-07-29T14:36:08;2.38;;;2.17;;
17696;SDS011;8967;47.984;7.842;2022-07-29T14:38:36;3.60;;;2.00;;
17696;SDS011;8967;47.984;7.842;2022-07-29T14:41:03;2.30;;;2.10;;
17696;SDS011;8967;47.984;7.842;2022-07-29T14:43:30;2.95;;;2.10;;
17696;SDS011;8967;47.984;7.842;2022-07-29T14:45:57;4.53;;;2.10;;
17696;SDS011;8967;47.984;7.842;2022-07-29T14:48:24;3.80;;;3.30;;
17696;SDS011;8967;47.984;7.842;2022-07-29T14:50:51;3.75;;;2.60;;
17696;SDS011;8967;47.984;7.842;2022-07-29T14:53:19;3.50;;;2.38;;
17696;SDS011;8967;47.984;7.842;2022-07-29T14:55:48;8.10;;;2.53;;
17696;SDS011;8967;47.984;7.842;2022-07-29T14:58:17;2.30;;;1.95;;
17696;SDS011;8967;47.984;7.842;2022-07-29T15:00:46;3.28;;;2.03;;
17696;SDS011;8967;47.984;7.842;2022-07-29T15:03:13;3.67;;;1.63;;
17696;SDS011;8967;47.984;7.842;2022-07-29T15:05:40;2.50;;;1.95;;
17696;SDS011;8967;47.984;7.842;2022-07-29T15:08:07;2.70;;;1.80;;
17696;SDS011;8967;47.984;7.842;2022-07-29T15:10:34;3.33;;;1.73;;
17696;SDS011;8967;47.984;7.842;2022-07-29T15:13:04;3.50;;;1.80;;
17696;SDS011;8967;47.984;7.842;2022-07-29T15:15:31;2.45;;;1.98;;
17696;SDS011;8967;47.984;7.842;2022-07-29T15:17:58;1.98;;;1.77;;
17696;SDS011;8967;47.984;7.842;2022-07-29T15:20:25;5.45;;;1.77;;
17696;SDS011;8967;47.984;7.842;2022-07-29T15:22:52;4.50;;;2.05;;
17696;SDS011;8967;47.984;7.842;2022-07-29T15:25:20;2.67;;;1.70;;
17696;SDS011;8967;47.984;7.842;2022-07-29T15:27:47;3.45;;;1.77;;
17696;SDS011;8967;47.984;7.842;2022-07-29T15:30:16;3.70;;;1.52;;
17696;SDS011;8967;47.984;7.842;2022-07-29T15:32:43;4.82;;;1.73;;
17696;SDS011;8967;47.984;7.842;2022-07-29T15:35:10;3.63;;;2.00;;
17696;SDS011;8967;47.984;7.842;2022-07-29T15:37:39;3.65;;;1.83;;
17696;SDS011;8967;47.984;7.842;2022-07-29T15:40:07;3.10;;;1.60;;